Time;durP1;ratioP1;P1;durP2;ratioP2;P2;SDS_P1;SDS_P2;PMS_P1;PMS_P2;Temp;Humidity;BMP_temperature;BMP_pressure;BME280_temperature;BME280_humidity;BME280_pressure;Samples;Min_cycle;Max_cycle;Signal;HPM_P1;HPM_P2
2022/10/03 00:02:26;;;;;;;11.57;8.20;;;15.70;61.30;;;;;;5111689;27;20580;-88
2022/10/03 00:05:04;;;;;;;14.10;8.90;;;15.70;60.80;;;;;;5110264;28;20503;-87
2022/10/03 00:07:49;;;;;;;14.70;8.70;;;15.70;60.60;;;;;;5109631;28;20445;-86
2022/10/03 00:10:27;;;;;;;13.93;9.40;;;15.60;61.20;;;;;;5110982;28;20473;-86
2022/10/03 00:13:15;;;;;;;14.77;10.50;;;15.50;61.60;;;;;;5099975;28;20439;-86
2022/10/03 00:16:01;;;;;;;14.57;9.63;;;15.30;61.60;;;;;;5110748;28;20473;-88
2022/10/03 00:18:39;;;;;;;19.80;9.97;;;15.30;62.70;;;;;;5110622;28;20439;-86
2022/10/03 00:21:20;;;;;;;34.60;10.90;;;15.30;63.00;;;;;;5092098;28;20542;-88
2022/10/03 00:23:52;;;;;;;23.10;12.27;;;15.30;62.90;;;;;;5110517;28;20529;-87
2022/10/03 00:26:34;;;;;;;14.80;10.00;;;14.90;64.10;;;;;;5109608;28;21017;-87
2022/10/03 00:29:16;;;;;;;13.50;8.87;;;15.00;64.50;;;;;;5098602;28;20945;-85
2022/10/03 00:31:52;;;;;;;13.90;8.80;;;15.10;64.40;;;;;;5108018;28;20864;-87
2022/10/03 00:34:26;;;;;;;14.73;8.90;;;15.10;63.50;;;;;;5109642;28;20450;-86
2022/10/03 00:37:08;;;;;;;18.43;9.60;;;15.10;63.50;;;;;;5113930;27;20448;-87
2022/10/03 00:39:48;;;;;;;15.17;9.20;;;15.20;63.30;;;;;;5112220;27;20946;-88
2022/10/03 00:42:54;;;;;;;14.23;9.00;;;15.30;63.20;;;;;;5114164;27;20466;-87
2022/10/03 00:46:04;;;;;;;14.30;8.30;;;15.30;64.30;;;;;;5072156;27;20482;-86
2022/10/03 00:49:05;;;;;;;11.07;8.50;;;15.30;63.10;;;;;;5085284;27;20516;-88
2022/10/03 00:51:43;;;;;;;11.03;8.20;;;15.40;62.70;;;;;;5088278;27;20454;-87
2022/10/03 00:54:31;;;;;;;11.77;8.30;;;15.40;62.20;;;;;;5111219;27;20532;-87
2022/10/03 00:57:18;;;;;;;17.70;8.80;;;15.40;62.00;;;;;;5095493;27;20449;-87
2022/10/03 01:00:06;;;;;;;14.50;9.00;;;15.40;62.00;;;;;;5116385;27;20473;-87
2022/10/03 01:02:50;;;;;;;13.57;9.03;;;15.40;62.10;;;;;;5114629;27;21109;-87
2022/10/03 01:05:33;;;;;;;11.70;7.77;;;15.40;62.10;;;;;;5104847;27;20585;-87
2022/10/03 01:08:29;;;;;;;14.93;10.07;;;15.30;62.00;;;;;;5120494;27;20445;-87
2022/10/03 01:11:05;;;;;;;17.90;10.37;;;15.20;62.80;;;;;;5114903;27;20463;-86
2022/10/03 01:13:45;;;;;;;12.37;9.03;;;15.20;63.10;;;;;;5112399;27;20450;-87
2022/10/03 01:16:20;;;;;;;18.13;10.43;;;15.30;62.70;;;;;;5110005;27;21176;-87
2022/10/03 01:19:02;;;;;;;19.63;10.67;;;14.70;64.80;;;;;;5115036;27;20456;-87
2022/10/03 01:21:41;;;;;;;20.00;11.10;;;14.60;65.30;;;;;;5100151;27;21236;-87
2022/10/03 01:24:26;;;;;;;16.43;10.30;;;14.80;64.50;;;;;;5112923;27;20439;-87
2022/10/03 01:26:57;;;;;;;19.17;9.83;;;14.90;64.10;;;;;;5098482;27;20477;-87
2022/10/03 01:32:37;;;;;;;11.30;7.43;;;14.90;63.70;;;;;;5114127;27;20443;-87
2022/10/03 01:35:15;;;;;;;15.03;8.87;;;14.90;62.90;;;;;;5096900;28;20466;-87
2022/10/03 01:37:52;;;;;;;16.03;8.70;;;14.90;62.40;;;;;;5114184;27;20956;-87
2022/10/03 01:40:26;;;;;;;17.00;9.00;;;15.00;62.90;;;;;;5086728;27;20447;-88
2022/10/03 01:43:03;;;;;;;17.73;9.83;;;15.00;63.60;;;;;;5092391;27;20689;-87
2022/10/03 01:45:46;;;;;;;10.63;8.37;;;14.90;65.10;;;;;;5113736;27;20542;-87
2022/10/03 01:48:20;;;;;;;12.40;8.33;;;15.00;64.00;;;;;;5109906;27;20974;-88
2022/10/03 01:50:57;;;;;;;13.47;8.27;;;15.00;62.80;;;;;;5095963;27;20461;-87
2022/10/03 01:53:35;;;;;;;11.07;7.83;;;15.10;62.30;;;;;;5081232;27;20523;-87
2022/10/03 01:56:11;;;;;;;26.50;7.13;;;15.00;62.10;;;;;;5087517;27;20462;-87
2022/10/03 01:58:49;;;;;;;15.40;7.37;;;14.80;62.80;;;;;;5095123;27;20818;-87
2022/10/03 02:01:24;;;;;;;6.90;5.00;;;14.60;62.40;;;;;;5094501;27;20818;-88
2022/10/03 02:04:00;;;;;;;16.93;6.97;;;14.60;62.40;;;;;;5098789;27;20434;-87
2022/10/03 02:06:42;;;;;;;11.53;6.70;;;14.50;63.10;;;;;;5121544;27;20470;-87
2022/10/03 02:09:18;;;;;;;16.03;9.10;;;14.60;62.40;;;;;;5094117;27;20446;-87
2022/10/03 02:12:08;;;;;;;9.70;6.10;;;14.50;63.00;;;;;;5095591;27;20461;-87
2022/10/03 02:14:47;;;;;;;11.40;6.83;;;14.60;62.90;;;;;;5103254;27;20442;-86
2022/10/03 02:17:27;;;;;;;11.37;8.27;;;14.60;62.50;;;;;;5110170;27;20953;-88
2022/10/03 02:20:01;;;;;;;10.20;7.50;;;14.60;61.80;;;;;;5114759;27;20454;-87
2022/10/03 02:22:32;;;;;;;11.10;7.60;;;14.50;62.00;;;;;;5112365;27;20439;-88
2022/10/03 02:25:09;;;;;;;12.53;7.57;;;14.50;62.30;;;;;;5114214;27;20861;-86
2022/10/03 02:28:03;;;;;;;13.70;8.67;;;14.40;63.00;;;;;;5102398;27;20950;-87
2022/10/03 02:30:41;;;;;;;11.43;7.50;;;14.60;62.40;;;;;;5102157;27;20549;-87
2022/10/03 02:33:47;;;;;;;14.07;7.03;;;14.50;62.40;;;;;;5111439;27;20443;-86
2022/10/03 02:36:43;;;;;;;11.80;6.77;;;14.50;61.70;;;;;;5006679;27;20561;-87
2022/10/03 02:39:38;;;;;;;9.97;7.10;;;14.40;61.50;;;;;;5113709;27;20955;-87
2022/10/03 02:42:31;;;;;;;10.47;6.17;;;14.40;61.50;;;;;;5094129;28;20458;-87
2022/10/03 02:45:35;;;;;;;7.50;5.70;;;14.50;61.30;;;;;;5112916;27;20458;-87
2022/10/03 02:48:29;;;;;;;8.40;5.03;;;14.50;61.10;;;;;;5086213;27;20445;-87
2022/10/03 02:51:14;;;;;;;8.10;5.63;;;14.40;60.50;;;;;;5126242;27;20567;-87
2022/10/03 02:54:11;;;;;;;8.57;5.50;;;14.40;60.40;;;;;;5112527;27;21428;-87
2022/10/03 02:57:11;;;;;;;6.30;5.00;;;14.40;60.00;;;;;;5112873;27;20473;-87
2022/10/03 03:00:09;;;;;;;8.27;5.37;;;14.40;59.70;;;;;;5102345;28;20443;-87
2022/10/03 03:03:20;;;;;;;8.17;5.43;;;14.40;59.50;;;;;;5096477;27;20451;-87
2022/10/03 03:06:19;;;;;;;9.10;6.30;;;14.30;59.40;;;;;;5119623;27;20466;-87
2022/10/03 03:09:25;;;;;;;9.60;6.13;;;14.10;60.20;;;;;;5112156;27;20435;-87
2022/10/03 03:12:26;;;;;;;8.63;6.00;;;14.10;60.70;;;;;;5102462;27;20458;-86
2022/10/03 03:15:12;;;;;;;8.17;5.60;;;14.00;60.80;;;;;;5113608;27;20546;-87
2022/10/03 03:17:47;;;;;;;10.03;6.07;;;14.00;60.80;;;;;;5110857;27;20446;-87
2022/10/03 03:20:40;;;;;;;9.00;5.83;;;14.00;61.20;;;;;;5112271;27;20541;-87
2022/10/03 03:23:35;;;;;;;13.00;5.90;;;14.00;60.90;;;;;;5113286;27;20485;-87
2022/10/03 03:26:35;;;;;;;10.07;6.63;;;14.00;60.90;;;;;;5055310;27;20485;-87
2022/10/03 03:29:13;;;;;;;11.93;5.87;;;13.90;60.10;;;;;;5103395;27;20450;-87
2022/10/03 03:31:53;;;;;;;12.43;6.33;;;13.80;61.40;;;;;;5093092;27;20485;-87
2022/10/03 03:34:29;;;;;;;9.90;6.83;;;13.80;61.20;;;;;;5090618;27;20969;-87
2022/10/03 03:37:04;;;;;;;15.03;7.93;;;13.70;60.50;;;;;;5109973;27;20458;-86
2022/10/03 03:39:49;;;;;;;21.20;6.83;;;13.70;61.60;;;;;;5109737;27;20934;-87
2022/10/03 03:42:39;;;;;;;9.60;6.30;;;13.70;61.70;;;;;;5084713;28;20460;-89
2022/10/03 03:45:17;;;;;;;8.70;5.70;;;13.70;61.50;;;;;;5092778;28;20520;-87
2022/10/03 03:48:00;;;;;;;6.70;5.20;;;13.70;61.50;;;;;;5101834;28;20430;-86
2022/10/03 03:50:46;;;;;;;7.23;5.30;;;13.80;60.50;;;;;;5087430;27;20945;-87
2022/10/03 03:53:36;;;;;;;7.73;5.60;;;13.70;60.30;;;;;;5100386;27;20446;-87
2022/10/03 03:56:23;;;;;;;8.93;6.40;;;13.60;60.40;;;;;;5066872;28;20462;-87
2022/10/03 03:59:02;;;;;;;6.30;5.57;;;13.70;60.70;;;;;;5109903;28;21122;-84
2022/10/03 04:01:48;;;;;;;9.43;6.37;;;13.60;61.00;;;;;;5110527;28;20458;-87
2022/10/03 04:04:30;;;;;;;7.40;5.37;;;13.60;60.60;;;;;;5107874;28;20450;-87
2022/10/03 04:07:06;;;;;;;7.00;5.43;;;13.70;60.60;;;;;;5110923;28;20977;-87
2022/10/03 04:09:59;;;;;;;23.90;6.23;;;13.50;60.00;;;;;;5108828;28;21132;-88
2022/10/03 04:12:51;;;;;;;8.97;5.00;;;13.60;60.20;;;;;;5105957;27;20477;-86
2022/10/03 04:15:36;;;;;;;6.23;5.60;;;13.50;60.40;;;;;;5112819;27;20527;-87
2022/10/03 04:21:39;;;;;;;15.93;7.30;;;13.20;61.10;;;;;;5114735;27;20453;-87
2022/10/03 04:24:26;;;;;;;5.43;4.70;;;13.20;61.00;;;;;;5105709;27;20439;-87
2022/10/03 04:27:08;;;;;;;6.13;5.23;;;13.20;60.50;;;;;;5098374;27;20480;-87
2022/10/03 04:29:46;;;;;;;6.37;5.30;;;13.10;61.30;;;;;;5115524;27;20442;-88
2022/10/03 04:32:28;;;;;;;9.30;5.20;;;13.10;61.00;;;;;;5087505;27;20519;-87
2022/10/03 04:35:16;;;;;;;7.63;5.20;;;13.20;59.80;;;;;;5095124;27;20497;-87
2022/10/03 04:37:47;;;;;;;7.37;4.47;;;13.20;60.00;;;;;;5084966;27;20454;-86
2022/10/03 04:40:25;;;;;;;4.67;4.17;;;13.20;59.80;;;;;;5113794;27;20461;-86
2022/10/03 04:43:03;;;;;;;6.60;5.23;;;13.30;59.90;;;;;;5105702;27;20446;-87
2022/10/03 04:45:54;;;;;;;13.70;4.90;;;13.40;59.80;;;;;;5114652;27;20464;-87
2022/10/03 04:48:32;;;;;;;4.97;4.27;;;13.40;59.30;;;;;;5089859;27;20453;-87
2022/10/03 04:51:08;;;;;;;10.37;4.33;;;13.20;59.70;;;;;;5087684;27;20446;-87
2022/10/03 04:53:50;;;;;;;5.70;4.23;;;13.10;59.30;;;;;;5116653;27;20922;-86
2022/10/03 04:56:31;;;;;;;5.90;4.90;;;13.00;60.20;;;;;;5098316;27;20471;-87
2022/10/03 04:59:09;;;;;;;17.33;6.40;;;13.00;59.70;;;;;;5095684;27;20446;-85
2022/10/03 05:01:45;;;;;;;12.73;5.93;;;13.00;60.30;;;;;;5112811;27;20522;-87
2022/10/03 05:04:24;;;;;;;10.40;7.33;;;12.80;62.50;;;;;;5089132;27;20451;-87
2022/10/03 05:07:02;;;;;;;13.80;6.17;;;12.90;61.10;;;;;;5115153;27;20473;-87
2022/10/03 05:09:38;;;;;;;6.97;4.73;;;12.90;59.80;;;;;;5095644;27;20909;-87
2022/10/03 05:12:14;;;;;;;146.57;15.10;;;12.70;60.80;;;;;;5112367;27;20481;-87
2022/10/03 05:14:56;;;;;;;66.50;10.73;;;12.60;60.90;;;;;;5114012;27;21026;-87
2022/10/03 05:17:36;;;;;;;64.07;9.30;;;12.30;62.20;;;;;;5103849;27;20553;-87
2022/10/03 05:20:41;;;;;;;8.50;5.67;;;12.40;61.30;;;;;;5083078;27;20529;-87
2022/10/03 05:23:24;;;;;;;5.30;4.00;;;12.10;62.90;;;;;;5081332;27;20449;-87
2022/10/03 05:26:00;;;;;;;4.83;4.33;;;12.00;63.10;;;;;;5082235;27;20988;-87
2022/10/03 05:28:37;;;;;;;19.40;4.93;;;12.20;64.00;;;;;;5110939;27;21086;-87
2022/10/03 05:31:20;;;;;;;35.80;5.50;;;12.30;63.10;;;;;;5114949;27;20430;-87
2022/10/03 05:33:59;;;;;;;20.13;4.80;;;12.40;62.70;;;;;;5113109;27;20788;-86
2022/10/03 05:36:32;;;;;;;28.07;6.40;;;12.10;62.70;;;;;;5111169;27;21153;-86
2022/10/03 05:39:24;;;;;;;5.07;4.10;;;12.00;63.20;;;;;;5098220;27;20451;-88
2022/10/03 05:41:53;;;;;;;19.17;5.37;;;12.10;63.40;;;;;;5113025;27;20442;-87
2022/10/03 05:44:32;;;;;;;48.27;6.07;;;12.10;63.30;;;;;;5112342;27;20944;-87
2022/10/03 05:47:43;;;;;;;14.10;4.57;;;12.20;62.70;;;;;;5121425;27;20975;-87
2022/10/03 05:50:14;;;;;;;15.63;4.00;;;12.30;62.40;;;;;;5102764;27;20507;-87
2022/10/03 05:53:02;;;;;;;7.63;4.80;;;12.40;61.60;;;;;;5112175;27;20466;-87
2022/10/03 05:55:39;;;;;;;5.50;4.20;;;12.50;61.40;;;;;;5114510;27;20474;-87
2022/10/03 05:58:30;;;;;;;17.23;4.57;;;12.70;61.30;;;;;;5111021;27;20443;-88
2022/10/03 06:01:16;;;;;;;29.23;5.80;;;12.80;60.80;;;;;;5114867;27;20533;-87
2022/10/03 06:04:00;;;;;;;9.83;3.90;;;12.80;60.50;;;;;;5108946;27;20445;-86
2022/10/03 06:06:42;;;;;;;23.87;4.53;;;12.80;60.40;;;;;;5120497;27;20482;-88
2022/10/03 06:09:52;;;;;;;4.73;3.60;;;12.90;60.10;;;;;;5115373;27;21162;-87
2022/10/03 06:12:30;;;;;;;14.33;3.70;;;12.90;59.90;;;;;;5103814;27;20982;-87
2022/10/03 06:15:29;;;;;;;25.63;3.97;;;12.90;60.40;;;;;;5112794;27;20477;-87
2022/10/03 06:18:03;;;;;;;13.07;5.37;;;12.90;60.20;;;;;;5110618;27;20453;-87
2022/10/03 06:21:13;;;;;;;13.27;4.80;;;13.00;59.80;;;;;;5097550;27;20430;-87
2022/10/03 06:24:11;;;;;;;22.97;5.20;;;13.00;60.10;;;;;;5094200;27;20537;-88
2022/10/03 06:27:00;;;;;;;24.93;9.20;;;13.00;60.00;;;;;;5129600;27;20459;-88
2022/10/03 06:30:04;;;;;;;24.67;10.03;;;13.10;59.90;;;;;;5110957;27;20988;-87
2022/10/03 06:33:17;;;;;;;10.30;8.47;;;13.10;59.90;;;;;;5110702;27;20469;-87
2022/10/03 06:36:26;;;;;;;7.83;5.43;;;13.10;60.40;;;;;;5112221;27;20485;-87
2022/10/03 06:39:28;;;;;;;16.07;11.50;;;13.20;60.20;;;;;;5071949;27;20434;-88
2022/10/03 06:42:36;;;;;;;18.80;13.57;;;13.10;60.20;;;;;;5096499;27;20448;-87
2022/10/03 06:45:44;;;;;;;25.97;15.07;;;13.20;61.00;;;;;;5100433;27;20470;-87
2022/10/03 06:48:43;;;;;;;31.87;12.13;;;13.30;60.20;;;;;;5110819;27;20458;-88
2022/10/03 06:51:43;;;;;;;117.30;51.60;;;13.20;60.80;;;;;;5106231;27;20454;-89
2022/10/03 06:54:44;;;;;;;46.40;28.00;;;13.30;61.00;;;;;;5105321;27;20431;-91
2022/10/03 06:57:27;;;;;;;83.30;14.73;;;13.40;60.60;;;;;;5119754;27;20551;-89
2022/10/03 07:00:08;;;;;;;29.87;13.40;;;13.30;61.30;;;;;;5103446;27;20442;-88
2022/10/03 07:03:10;;;;;;;67.37;13.60;;;13.20;61.60;;;;;;5102356;27;20439;-88
2022/10/03 07:06:15;;;;;;;53.80;20.13;;;13.30;61.20;;;;;;5087131;27;20561;-89
2022/10/03 07:09:21;;;;;;;29.77;12.83;;;13.20;62.00;;;;;;5103765;27;20450;-88
2022/10/03 07:12:26;;;;;;;24.20;9.60;;;13.30;62.00;;;;;;5097555;27;20953;-88
2022/10/03 07:15:16;;;;;;;25.13;11.17;;;13.40;61.60;;;;;;4989952;28;21154;-90
2022/10/03 07:18:17;;;;;;;16.70;12.30;;;13.40;61.30;;;;;;5092132;27;20829;-88
2022/10/03 07:21:23;;;;;;;30.10;18.70;;;13.50;61.10;;;;;;5085680;28;20442;-92
2022/10/03 07:24:06;;;;;;;35.67;20.90;;;13.40;61.30;;;;;;5080404;27;21054;-88
2022/10/03 07:26:53;;;;;;;45.30;22.50;;;13.50;61.90;;;;;;5103273;27;20465;-88
2022/10/03 07:29:46;;;;;;;70.67;37.83;;;13.50;62.00;;;;;;5084121;28;20459;-90
2022/10/03 07:32:28;;;;;;;68.47;40.40;;;13.50;62.10;;;;;;5086214;28;20475;-90
2022/10/03 07:39:15;;;;;;;40.80;24.07;;;13.50;63.30;;;;;;5053993;28;20523;-90
2022/10/03 07:42:10;;;;;;;37.60;23.87;;;13.60;63.00;;;;;;5113120;27;21119;-89
2022/10/03 07:45:22;;;;;;;28.00;18.53;;;13.60;62.50;;;;;;5094822;28;20439;-88
2022/10/03 07:48:12;;;;;;;30.90;15.33;;;13.60;63.30;;;;;;5082024;28;20473;-91
2022/10/03 07:50:56;;;;;;;25.70;17.27;;;13.70;64.40;;;;;;5085606;28;20470;-88
2022/10/03 07:53:55;;;;;;;25.67;14.70;;;13.80;65.00;;;;;;5093667;28;20455;-88
2022/10/03 07:56:54;;;;;;;18.97;12.80;;;13.90;66.00;;;;;;5107380;28;20469;-88
2022/10/03 07:59:52;;;;;;;19.50;12.30;;;14.00;67.70;;;;;;5110081;28;20453;-88
2022/10/03 08:02:43;;;;;;;23.53;11.50;;;14.10;67.90;;;;;;5096329;28;20437;-88
2022/10/03 08:05:33;;;;;;;28.10;13.27;;;14.30;67.40;;;;;;5116360;28;20466;-88
2022/10/03 08:08:32;;;;;;;26.50;12.30;;;14.50;67.10;;;;;;5095777;28;20450;-89
2022/10/03 08:11:24;;;;;;;25.43;12.67;;;14.60;66.90;;;;;;5083263;28;20794;-87
2022/10/03 08:14:03;;;;;;;26.37;12.43;;;14.60;67.90;;;;;;5073630;28;20530;-89
2022/10/03 08:16:55;;;;;;;25.70;11.27;;;14.60;68.10;;;;;;5111783;28;20856;-88
2022/10/03 08:20:01;;;;;;;30.50;12.70;;;14.80;68.20;;;;;;5087072;28;21091;-86
2022/10/03 08:22:42;;;;;;;20.43;11.07;;;14.90;67.80;;;;;;5118390;28;20450;-88
2022/10/03 08:25:29;;;;;;;15.50;10.33;;;15.00;67.30;;;;;;5113900;27;21011;-88
2022/10/03 08:28:45;;;;;;;17.30;8.40;;;15.10;67.40;;;;;;5099916;28;20573;-88
2022/10/03 08:31:40;;;;;;;17.20;9.33;;;15.10;67.70;;;;;;5011695;28;20499;-89
2022/10/03 08:34:27;;;;;;;24.20;9.93;;;15.20;68.40;;;;;;5088496;28;20485;-87
2022/10/03 08:37:28;;;;;;;18.03;8.07;;;15.20;68.30;;;;;;5108433;28;20466;-87
2022/10/03 08:40:36;;;;;;;15.97;8.07;;;15.40;67.50;;;;;;5111980;28;20456;-89
2022/10/03 08:43:42;;;;;;;14.83;8.60;;;15.30;67.40;;;;;;5112795;28;20470;-88
2022/10/03 08:46:39;;;;;;;11.93;8.17;;;15.50;67.30;;;;;;5106856;28;20986;-88
2022/10/03 08:49:25;;;;;;;8.93;7.50;;;15.60;67.40;;;;;;5101861;28;20454;-89
2022/10/03 08:52:16;;;;;;;9.97;6.70;;;15.70;67.60;;;;;;5114593;28;20463;-89
2022/10/03 08:55:11;;;;;;;12.70;7.70;;;15.70;66.40;;;;;;5110768;28;20560;-88
2022/10/03 08:58:02;;;;;;;20.00;10.60;;;16.00;66.80;;;;;;5094284;28;20465;-88
2022/10/03 09:00:41;;;;;;;14.57;8.20;;;16.20;66.80;;;;;;5109380;27;20520;-88
2022/10/03 09:03:40;;;;;;;17.80;8.20;;;16.30;66.30;;;;;;5098490;27;20446;-88
2022/10/03 09:06:50;;;;;;;24.70;13.27;;;16.40;65.30;;;;;;5115269;27;20469;-89
2022/10/03 09:09:53;;;;;;;11.93;7.57;;;16.50;65.10;;;;;;5100331;27;20443;-89
2022/10/03 09:13:04;;;;;;;14.90;11.60;;;16.50;65.20;;;;;;5020753;27;20493;-89
2022/10/03 09:15:55;;;;;;;14.80;10.10;;;16.60;64.70;;;;;;5096146;28;20482;-89
2022/10/03 09:18:47;;;;;;;10.97;7.00;;;16.70;64.90;;;;;;5104739;27;20464;-90
2022/10/03 09:21:49;;;;;;;11.63;6.53;;;16.80;64.20;;;;;;5103209;27;20449;-90
2022/10/03 09:24:39;;;;;;;11.37;7.07;;;16.80;64.70;;;;;;5111605;27;20443;-89
2022/10/03 09:27:35;;;;;;;16.00;7.83;;;17.00;64.80;;;;;;5104224;27;20494;-89
2022/10/03 09:30:24;;;;;;;14.40;8.17;;;17.20;65.30;;;;;;5104443;27;20569;-88
2022/10/03 09:33:38;;;;;;;16.20;6.73;;;17.30;64.90;;;;;;5100189;27;20469;-88
2022/10/03 09:36:36;;;;;;;9.97;5.70;;;17.40;64.60;;;;;;5095639;27;21112;-91
2022/10/03 09:39:23;;;;;;;12.20;6.40;;;17.40;63.10;;;;;;5097663;27;20934;-88
2022/10/03 09:42:32;;;;;;;12.10;6.70;;;17.40;61.60;;;;;;5098475;27;20426;-90
2022/10/03 09:45:36;;;;;;;14.70;8.93;;;17.60;62.20;;;;;;5112657;27;20469;-87
2022/10/03 09:48:26;;;;;;;33.80;27.47;;;17.70;62.10;;;;;;5114508;27;20485;-89
2022/10/03 09:51:08;;;;;;;14.53;10.10;;;17.70;59.50;;;;;;5088789;27;20454;-89
2022/10/03 09:54:06;;;;;;;12.27;6.77;;;17.70;60.30;;;;;;5122204;27;20964;-90
2022/10/03 09:56:53;;;;;;;8.70;5.53;;;17.90;60.80;;;;;;5097576;27;20542;-89
2022/10/03 09:59:44;;;;;;;6.83;5.60;;;18.00;61.60;;;;;;5097656;27;20450;-90
2022/10/03 10:02:44;;;;;;;8.33;5.10;;;17.80;59.60;;;;;;5085482;27;20446;-90
2022/10/03 10:05:40;;;;;;;7.17;4.87;;;17.70;60.30;;;;;;5115077;27;20530;-89
2022/10/03 10:08:28;;;;;;;10.37;4.80;;;17.80;59.80;;;;;;5069778;27;20446;-90
2022/10/03 10:11:21;;;;;;;6.20;5.57;;;18.00;59.20;;;;;;5096549;27;20599;-90
2022/10/03 10:14:22;;;;;;;7.37;5.97;;;18.00;58.30;;;;;;5098375;27;20915;-89
2022/10/03 10:17:14;;;;;;;6.80;5.43;;;18.00;58.90;;;;;;5112166;27;20461;-89
2022/10/03 10:19:58;;;;;;;10.57;7.33;;;18.00;59.20;;;;;;5111639;27;20454;-89
2022/10/03 10:23:03;;;;;;;8.50;5.10;;;18.00;58.80;;;;;;5100794;27;20534;-90
2022/10/03 10:26:03;;;;;;;6.30;4.27;;;18.10;59.30;;;;;;5100665;27;20519;-90
2022/10/03 10:29:07;;;;;;;10.97;6.07;;;18.30;58.70;;;;;;5047767;27;20451;-90
2022/10/03 10:32:11;;;;;;;13.70;5.50;;;18.40;58.80;;;;;;5097496;27;20449;-90
2022/10/03 10:35:14;;;;;;;5.97;4.00;;;18.50;58.50;;;;;;5111519;27;20817;-89
2022/10/03 10:38:16;;;;;;;4.53;3.50;;;18.60;57.20;;;;;;5094514;27;20445;-91
2022/10/03 10:41:21;;;;;;;6.73;3.53;;;18.40;55.20;;;;;;5110226;27;20438;-89
2022/10/03 10:44:32;;;;;;;9.67;4.40;;;18.70;56.20;;;;;;5106384;28;20467;-89
2022/10/03 10:47:38;;;;;;;7.03;4.17;;;18.90;56.20;;;;;;5115291;27;20494;-90
2022/10/03 10:50:42;;;;;;;5.10;3.03;;;19.00;56.20;;;;;;5107164;27;20451;-90
2022/10/03 10:53:48;;;;;;;7.40;3.63;;;19.00;55.50;;;;;;5113039;27;20470;-91
2022/10/03 10:56:57;;;;;;;7.53;3.10;;;19.00;55.80;;;;;;5098911;27;20473;-90
2022/10/03 11:00:14;;;;;;;3.60;3.00;;;18.90;55.00;;;;;;5060935;27;20541;-89
2022/10/03 11:03:42;;;;;;;8.10;3.07;;;19.00;55.20;;;;;;5016785;28;20441;-91
2022/10/03 11:07:03;;;;;;;6.80;3.33;;;19.10;55.20;;;;;;5024665;28;20484;-90
2022/10/03 11:10:03;;;;;;;6.40;2.77;;;19.10;55.30;;;;;;5113753;27;21150;-91
2022/10/03 11:13:13;;;;;;;17.53;7.23;;;19.20;55.50;;;;;;5098224;27;20446;-89
2022/10/03 11:16:12;;;;;;;11.77;5.03;;;19.20;54.60;;;;;;5113361;27;20872;-90
2022/10/03 11:19:15;;;;;;;11.90;6.93;;;19.20;55.20;;;;;;5114855;27;21334;-90
2022/10/03 11:22:19;;;;;;;8.97;4.50;;;19.10;55.00;;;;;;5071630;27;20822;-90
2022/10/03 11:25:42;;;;;;;7.80;5.33;;;19.00;54.90;;;;;;5098060;27;20425;-90
2022/10/03 11:28:50;;;;;;;5.40;4.33;;;18.90;55.00;;;;;;5083585;27;20466;-90
2022/10/03 11:32:14;;;;;;;12.57;5.60;;;18.90;55.70;;;;;;5094333;28;20859;-90
2022/10/03 11:35:01;;;;;;;5.57;3.70;;;18.80;56.30;;;;;;5044319;28;20467;-90
2022/10/03 11:37:41;;;;;;;7.20;4.73;;;18.70;56.40;;;;;;5035244;28;20456;-90
2022/10/03 11:40:27;;;;;;;11.33;3.97;;;18.60;55.70;;;;;;5039757;28;20500;-90
2022/10/03 11:43:04;;;;;;;7.33;4.23;;;18.60;55.40;;;;;;5097755;28;20453;-90
2022/10/03 11:45:36;;;;;;;9.57;5.23;;;18.50;55.60;;;;;;5082095;28;20962;-90
2022/10/03 11:48:36;;;;;;;5.90;4.43;;;18.50;56.10;;;;;;5071578;28;20435;-89
2022/10/03 11:51:09;;;;;;;8.73;3.43;;;18.60;55.90;;;;;;5062474;27;21011;-89
2022/10/03 11:53:42;;;;;;;6.53;3.27;;;18.70;56.20;;;;;;5080034;28;20476;-90
2022/10/03 11:56:32;;;;;;;8.87;4.40;;;18.90;55.90;;;;;;5101822;28;20497;-91
2022/10/03 11:59:32;;;;;;;4.03;2.50;;;19.20;56.30;;;;;;5092588;28;20443;-91
2022/10/03 12:02:33;;;;;;;4.30;3.00;;;19.50;54.90;;;;;;5057683;28;20446;-91
2022/10/03 12:05:05;;;;;;;5.60;3.00;;;19.60;54.30;;;;;;5091820;28;20474;-92
2022/10/03 12:10:56;;;;;;;3.80;2.90;;;19.30;54.10;;;;;;5068945;28;20446;-91
2022/10/03 12:13:37;;;;;;;4.33;2.70;;;18.90;53.20;;;;;;5086231;28;20483;-91
2022/10/03 12:16:07;;;;;;;3.50;3.00;;;19.00;55.20;;;;;;5074963;28;20478;-92
2022/10/03 12:18:52;;;;;;;4.37;2.77;;;19.30;52.70;;;;;;5078483;28;20504;-92
2022/10/03 12:21:27;;;;;;;5.73;3.93;;;19.70;52.60;;;;;;5073249;28;20443;-91
2022/10/03 12:24:13;;;;;;;5.43;3.80;;;19.80;53.50;;;;;;5083461;28;20473;-91
2022/10/03 12:26:51;;;;;;;4.57;3.37;;;19.70;51.90;;;;;;5073951;28;20482;-91
2022/10/03 12:29:23;;;;;;;7.13;4.07;;;19.60;52.50;;;;;;5101756;28;20452;-91
2022/10/03 12:32:03;;;;;;;3.90;2.70;;;19.40;52.30;;;;;;5086155;27;20534;-91
2022/10/03 12:34:38;;;;;;;4.90;2.70;;;19.80;53.80;;;;;;5066092;27;20497;-92
2022/10/03 12:37:28;;;;;;;3.83;3.33;;;20.10;51.30;;;;;;5066855;27;20470;-91
2022/10/03 12:40:03;;;;;;;9.20;3.53;;;20.40;51.20;;;;;;5083735;27;21222;-91
2022/10/03 12:42:34;;;;;;;5.60;3.20;;;20.70;50.60;;;;;;5088790;27;20458;-93
2022/10/03 12:45:06;;;;;;;5.00;2.30;;;21.10;50.30;;;;;;5081280;27;20459;-91
2022/10/03 12:47:50;;;;;;;5.83;3.03;;;21.40;49.60;;;;;;5088285;27;20447;-92
2022/10/03 12:50:35;;;;;;;2.93;2.73;;;21.70;48.10;;;;;;5097588;27;20478;-91
2022/10/03 12:53:22;;;;;;;6.90;2.57;;;21.40;47.90;;;;;;5120379;27;20454;-91
2022/10/03 12:56:06;;;;;;;7.00;2.90;;;21.30;48.60;;;;;;5098956;27;21091;-91
2022/10/03 12:58:42;;;;;;;4.10;2.53;;;20.80;48.90;;;;;;5077805;27;20455;-93
2022/10/03 13:01:21;;;;;;;13.73;5.00;;;20.70;49.10;;;;;;5079341;27;20450;-92
2022/10/03 13:03:53;;;;;;;10.20;3.27;;;20.50;49.80;;;;;;5096182;27;20487;-92
2022/10/03 13:06:40;;;;;;;4.53;2.23;;;20.50;49.60;;;;;;5104118;27;20470;-92
2022/10/03 13:09:24;;;;;;;5.97;3.77;;;20.50;49.30;;;;;;5077153;28;20491;-92
2022/10/03 13:12:02;;;;;;;4.40;3.20;;;20.60;49.90;;;;;;5102437;27;20490;-92
2022/10/03 13:15:03;;;;;;;5.80;3.40;;;20.30;50.70;;;;;;5097549;27;20459;-92
2022/10/03 13:17:48;;;;;;;8.13;2.83;;;20.20;51.30;;;;;;5096623;27;21128;-93
2022/10/03 13:20:24;;;;;;;7.70;3.80;;;20.20;50.80;;;;;;5086394;28;20431;-92
2022/10/03 13:23:03;;;;;;;3.70;2.80;;;19.90;50.30;;;;;;5114224;27;20465;-93
2022/10/03 13:25:38;;;;;;;3.10;2.70;;;20.00;51.70;;;;;;5085548;27;20501;-92
2022/10/03 13:28:14;;;;;;;11.93;6.80;;;19.90;50.90;;;;;;5089362;27;20528;-92
2022/10/03 13:30:48;;;;;;;5.00;3.70;;;19.90;51.40;;;;;;5107723;27;20508;-94
2022/10/03 13:33:21;;;;;;;3.37;3.07;;;20.20;50.00;;;;;;5118711;27;20469;-94
2022/10/03 13:36:00;;;;;;;3.40;2.00;;;20.20;48.50;;;;;;5117276;27;20455;-92
2022/10/03 13:38:57;;;;;;;8.63;3.60;;;19.90;49.00;;;;;;5107451;27;20453;-92
2022/10/03 13:41:29;;;;;;;3.63;2.93;;;19.90;50.30;;;;;;5109242;27;20798;-92
2022/10/03 13:44:00;;;;;;;6.27;4.00;;;19.90;49.30;;;;;;5106437;27;20463;-93
2022/10/03 13:46:37;;;;;;;2.67;2.23;;;20.00;50.00;;;;;;5101939;27;20939;-94
2022/10/03 13:49:17;;;;;;;7.10;4.10;;;20.00;47.30;;;;;;5115406;27;20477;-92
2022/10/03 13:51:51;;;;;;;3.87;2.93;;;19.90;46.50;;;;;;5103666;27;20438;-93
2022/10/03 13:54:25;;;;;;;2.60;2.33;;;19.60;48.10;;;;;;5125380;27;20476;-92
2022/10/03 13:56:56;;;;;;;2.93;2.73;;;19.60;47.50;;;;;;5114445;27;20465;-93
2022/10/03 13:59:39;;;;;;;5.53;4.43;;;19.70;48.90;;;;;;5099674;27;20515;-93
2022/10/03 14:02:40;;;;;;;14.13;7.40;;;19.90;49.10;;;;;;5088162;27;20469;-93
2022/10/03 14:05:29;;;;;;;3.20;2.77;;;20.10;49.10;;;;;;5098091;27;20470;-93
2022/10/03 14:08:04;;;;;;;5.10;2.30;;;20.00;48.50;;;;;;5077695;27;20469;-93
2022/10/03 14:11:11;;;;;;;6.10;4.70;;;20.00;49.70;;;;;;5111402;27;20454;-93
2022/10/03 14:13:51;;;;;;;7.30;4.20;;;20.10;49.40;;;;;;5093878;27;20446;-93
2022/10/03 14:16:27;;;;;;;7.33;4.47;;;20.20;50.10;;;;;;5086213;27;20845;-92
2022/10/03 14:19:02;;;;;;;5.50;4.40;;;20.30;49.80;;;;;;5085745;28;20443;-93
2022/10/03 14:21:51;;;;;;;8.57;6.43;;;20.40;49.10;;;;;;5109554;27;20459;-92
2022/10/03 14:24:45;;;;;;;4.60;2.90;;;20.40;48.70;;;;;;5107557;27;20537;-94
2022/10/03 14:27:35;;;;;;;6.23;5.50;;;20.40;49.10;;;;;;5101914;27;20450;-94
2022/10/03 14:30:05;;;;;;;4.43;3.33;;;20.40;49.30;;;;;;5111686;27;20471;-93
2022/10/03 14:32:38;;;;;;;12.20;4.40;;;20.30;49.40;;;;;;5104267;27;20449;-93
2022/10/03 14:35:13;;;;;;;4.03;2.90;;;20.00;50.00;;;;;;5095509;27;20474;-94
2022/10/03 14:37:52;;;;;;;4.73;2.33;;;19.90;49.70;;;;;;5096152;27;20439;-93
2022/10/03 14:40:26;;;;;;;9.63;4.00;;;19.90;50.00;;;;;;5102317;27;20537;-94
2022/10/03 14:43:14;;;;;;;7.03;4.43;;;19.90;50.60;;;;;;5092810;28;20450;-93